This is the latest recevied weather packets stored in our database for station/object PY2VE-13. If no packets are shown the sender has not sent any weather packets the latest 10 day(s).
| Time | Temp. | Humidity | Pressure | Rain* | Wind** | Luminosity | Snow |
|---|---|---|---|---|---|---|---|
| 1777935832 | 27.78° C | 45% | 1022.5 hPa | - | - | - | - |
| 1777934932 | 28.33° C | 44% | 1022.2 hPa | - | - | - | - |
| 1777934032 | 28.33° C | 44% | 1022.1 hPa | - | - | - | - |
| 1777933132 | 28.33° C | 43% | 1021.9 hPa | - | - | - | - |
| 1777932232 | 28.33° C | 43% | 1021.7 hPa | - | - | - | - |
| 1777931332 | 28.89° C | 42% | 1021.3 hPa | - | - | - | - |
| 1777930431 | 28.89° C | 42% | 1021.1 hPa | - | - | - | - |
| 1777929532 | 29.44° C | 41% | 1021 hPa | - | - | - | - |
| 1777928631 | 29.44° C | 41% | 1021 hPa | - | - | - | - |
| 1777927731 | 30° C | 40% | 1020.7 hPa | - | - | - | - |
| 1777926831 | 29.44° C | 39% | 1020.6 hPa | - | - | - | - |
| 1777925931 | 30° C | 39% | 1020.7 hPa | - | - | - | - |
| 1777925031 | 30.56° C | 38% | 1020.4 hPa | - | - | - | - |
| 1777924131 | 30° C | 37% | 1020.5 hPa | - | - | - | - |
| 1777923231 | 31.11° C | 35% | 1020.2 hPa | - | - | - | - |
| 1777922331 | 36.11° C | 27% | 1019 hPa | - | - | - | - |
| 1777921431 | 49.44° C | 14% | 1015.9 hPa | - | - | - | - |
| 1777920531 | 47.22° C | 16% | 1016.5 hPa | - | - | - | - |
| 1777919631 | 31.67° C | 37% | 1020 hPa | - | - | - | - |
| 1777918731 | 30° C | 40% | 1020.5 hPa | - | - | - | - |
| 1777917831 | 29.44° C | 42% | 1020.7 hPa | - | - | - | - |
| 1777916931 | 29.44° C | 41% | 1020.9 hPa | - | - | - | - |
| 1777916031 | 30° C | 40% | 1020.8 hPa | - | - | - | - |
| 1777915131 | 30.56° C | 39% | 1020.8 hPa | - | - | - | - |
| 1777914231 | 30° C | 41% | 1021.2 hPa | - | - | - | - |
* Rain since midnight (hover to see other rain measurements)
** Current wind speed in m/s (hover to see current wind gust speed)